METAR Data
IDs: Format: Raw Decoded Include TAF

Data at: 1057 UTC 18 Jan 2022

K2C8 181055Z AUTO 8SM OVC005 M04/M04 A2942 RMK AO2
K2C8 181035Z AUTO 8SM OVC005 M05/M05 A2943 RMK AO2
K2C8 181015Z AUTO 7SM OVC005 M05/M05 A2943 RMK AO2
K2C8 180955Z AUTO 14006KT 9SM OVC005 M05/M05 A2946 RMK AO2
K2C8 180935Z AUTO 6SM BR OVC005 M06/M06 A2946 RMK AO2
K2C8 180915Z AUTO 7SM OVC006 M06/M06 A2949 RMK AO2
K2C8 180855Z AUTO 5SM BR BKN006 OVC012 M06/M06 A2950 RMK AO2
K2C8 180835Z AUTO 2 1/2SM -SN SCT003 OVC012 M07/M07 A2951 RMK AO2
K2C8 180815Z AUTO 1 1/4SM -SN OVC003 M07/M07 A2952 RMK AO2
K2C8 180755Z AUTO 1SM -SN OVC003 M07/M07 A2954 RMK AO2
K2C8 180735Z AUTO 1SM -SN OVC003 M07/M07 A2957 RMK AO2
K2C8 180715Z AUTO 1 1/2SM -SN OVC003 M08/M08 A2959 RMK AO2
K2C8 180655Z AUTO 1 1/4SM -SN OVC003 M09/M09 A2961 RMK AO2
K2C8 180635Z AUTO 3/4SM -SN OVC003 M09/M09 A2964 RMK AO2
K2C8 180615Z AUTO 3/4SM -SN OVC003 M09/M09 A2965 RMK AO2
K2C8 180555Z AUTO 1 1/4SM -SN BKN003 BKN009 OVC023 M09/M09 A2966 RMK AO2
K2C8 180535Z AUTO 3SM -SN OVC026 M10/M10 A2965 RMK AO2
K2C8 180515Z AUTO 4SM -SN OVC026 M10/M10 A2966 RMK AO2
K2C8 180455Z AUTO 7SM -SN SCT015 OVC026 M10/M11 A2968 RMK AO2
K2C8 180435Z AUTO 4SM -SN OVC015 M10/M11 A2970 RMK AO2
K2C8 180415Z AUTO 00000KT 10SM OVC014 M11/M11 A2971 RMK AO2
K2C8 180355Z AUTO 00000KT 10SM SCT014 BKN027 OVC055 M11/M11 A2972 RMK AO2
K2C8 180335Z AUTO 02005KT 10SM -SN FEW013 BKN027 OVC070 M11/M11 A2974 RMK AO2
K2C8 180315Z AUTO 36005KT 5SM -SN FEW004 SCT029 OVC070 M11/M12 A2974 RMK AO2
K2C8 180255Z AUTO 02005KT 10SM FEW035 OVC070 M11/M12 A2976 RMK AO2
K2C8 180235Z AUTO 10SM OVC070 M11/M12 A2977 RMK AO2
K2C8 180215Z AUTO 10SM OVC070 M11/M12 A2978 RMK AO2
K2C8 180155Z AUTO 10SM FEW017 BKN025 OVC075 M11/M12 A2978 RMK AO2
K2C8 180135Z AUTO 10SM SCT017 OVC026 M11/M12 A2981 RMK AO2
K2C8 180115Z AUTO 34005KT 10SM BKN025 OVC080 M11/M12 A2981 RMK AO2
K2C8 180055Z AUTO 05005KT 10SM SCT024 OVC080 M11/M12 A2979 RMK AO2
K2C8 180035Z AUTO 04005KT 10SM BKN024 OVC080 M11/M12 A2980 RMK AO2
K2C8 180015Z AUTO 36007KT 10SM OVC025 M11/M12 A2982 RMK AO2
K2C8 172355Z AUTO 36009KT 10SM BKN026 BKN043 OVC070 M11/M12 A2983 RMK AO2
K2C8 172335Z AUTO 02010KT 10SM SCT026 BKN043 OVC070 M11/M12 A2983 RMK AO2
K2C8 172315Z AUTO 02009KT 9SM -SN SCT010 OVC026 M11/M11 A2983 RMK AO2
K2C8 172255Z AUTO 35008KT 9SM SCT009 BKN027 OVC045 M11/M11 A2985 RMK AO2
K2C8 172235Z AUTO 35007KT 10SM BKN009 BKN027 OVC046 M10/M11 A2984 RMK AO2
K2C8 172215Z AUTO 10SM BKN009 OVC046 M10/M11 A2983 RMK AO2
K2C8 172155Z AUTO 9SM SCT009 OVC045 M10/M11 A2983 RMK AO2
K2C8 172135Z AUTO 36009KT 10SM FEW004 FEW010 OVC045 M10/M11 A2984 RMK AO2
K2C8 172115Z AUTO 9SM FEW005 SCT010 OVC047 M10/M11 A2984 RMK AO2
K2C8 172055Z AUTO 8SM SCT005 SCT010 OVC047 M10/M11 A2984 RMK AO2
K2C8 172035Z AUTO 9SM OVC049 M10/M11 A2984 RMK AO2
K2C8 172015Z AUTO 10SM FEW025 OVC050 M10/M10 A2983 RMK AO2
K2C8 171955Z AUTO 7SM -SN BKN025 OVC050 M09/M10 A2983 RMK AO2
K2C8 171935Z AUTO 8SM -SN OVC025 M09/M10 A2984 RMK AO2
K2C8 171915Z AUTO 8SM -SN OVC025 M09/M10 A2984 RMK AO2
K2C8 171855Z AUTO 8SM FEW009 OVC025 M09/M10 A2986 RMK AO2
K2C8 171835Z AUTO 6SM -SN BKN009 OVC025 M09/M09 A2985 RMK AO2
K2C8 171815Z AUTO 6SM -SN BKN008 OVC024 M09/M09 A2986 RMK AO2
K2C8 171755Z AUTO 8SM BKN009 OVC025 M09/M09 A2986 RMK AO2
K2C8 171735Z AUTO 9SM FEW009 OVC025 M09/M09 A2987 RMK AO2
K2C8 171715Z AUTO 35012KT 10SM OVC025 M08/M09 A2986 RMK AO2
K2C8 171655Z AUTO 36012KT 10SM OVC025 M08/M09 A2985 RMK AO2
K2C8 171635Z AUTO 36009G15KT 9SM FEW008 OVC026 M08/M08 A2985 RMK AO2
K2C8 171615Z AUTO 36010G15KT 8SM OVC007 M07/M07 A2984 RMK AO2
K2C8 171555Z AUTO 35010G16KT 10SM OVC006 M06/M07 A2984 RMK AO2
K2C8 171535Z AUTO 36009KT 10SM OVC006 M06/M06 A2983 RMK AO2
K2C8 171515Z AUTO 36012KT 10SM OVC006 M06/M06 A2982 RMK AO2
K2C8 171455Z AUTO 35009KT 10SM OVC006 M05/M05 A2981 RMK AO2
K2C8 171435Z AUTO 34008G13KT 10SM OVC007 M04/M04 A2980 RMK AO2
K2C8 171415Z AUTO 36007G14KT 10SM OVC008 M04/M04 A2978 RMK AO2
K2C8 171355Z AUTO 35009KT 10SM BKN009 BKN016 OVC029 M03/M03 A2980 RMK AO2
K2C8 171335Z AUTO 10SM BKN012 OVC016 M03/M03 A2980 RMK AO2
K2C8 171315Z AUTO 10SM OVC012 M02/M03 A2980 RMK AO2
K2C8 171255Z AUTO 34011KT 8SM BKN013 BKN026 OVC032 M02/M03 A2980 RMK AO2
K2C8 171235Z AUTO 33007KT 6SM -SN FEW014 SCT019 BKN026 M02/M03 A2979 RMK AO2
K2C8 171215Z AUTO 6SM -UP OVC014 M02/M03 A2978 RMK AO2
K2C8 171155Z AUTO 32008KT 10SM OVC015 M02/M03 A2977 RMK AO2
K2C8 171135Z AUTO 32007KT 10SM BKN018 BKN023 OVC050 M02/M03 A2977 RMK AO2
K2C8 171115Z AUTO 31006KT 10SM OVC050 M02/M03 A2976 RMK AO2
K2C8 171055Z AUTO 10SM OVC050 M02/M03 A2976 RMK AO2
K2C8 171035Z AUTO 30005KT 10SM BKN050 OVC065 M02/M03 A2976 RMK AO2
K2C8 171015Z AUTO 30007KT 10SM BKN050 BKN060 M02/M03 A2976 RMK AO2
K2C8 170955Z AUTO 29007KT 10SM OVC060 M01/M03 A2976 RMK AO2
K2C8 170935Z AUTO 10SM OVC060 M01/M03 A2977 RMK AO2
K2C8 170915Z AUTO 28010KT 10SM OVC060 M01/M03 A2977 RMK AO2
K2C8 170855Z AUTO 28010G16KT 10SM OVC060 M01/M02 A2977 RMK AO2
K2C8 170835Z AUTO 27010KT 10SM SCT060 M01/M03 A2976 RMK AO2
K2C8 170815Z AUTO 10SM BKN055 M02/M03 A2977 RMK AO2
K2C8 170755Z AUTO 10SM OVC055 M01/M02 A2977 RMK AO2
K2C8 170735Z AUTO 10SM BKN050 OVC060 M02/M02 A2977 RMK AO2
K2C8 170715Z AUTO 24005KT 10SM BKN050 OVC060 M03/M03 A2978 RMK AO2
K2C8 170655Z AUTO 10SM FEW050 OVC060 M04/M04 A2978 RMK AO2
K2C8 170635Z AUTO 10SM OVC060 M05/M05 A2979 RMK AO2
K2C8 170615Z AUTO 10SM OVC060 M06/M06 A2979 RMK AO2
K2C8 170555Z AUTO 10SM OVC060 M07/M07 A2980 RMK AO2
K2C8 170535Z AUTO 10SM OVC060 M07/M07 A2981 RMK AO2
K2C8 170515Z AUTO 10SM OVC065 M07/M08 A2983 RMK AO2
K2C8 170455Z AUTO 10SM OVC065 M07/M07 A2983 RMK AO2
K2C8 170435Z AUTO 10SM OVC065 M08/M08 A2983 RMK AO2
K2C8 170415Z AUTO 10SM OVC060 M08/M08 A2984 RMK AO2
K2C8 170355Z AUTO 10SM SCT060 M09/M09 A2984 RMK AO2
K2C8 170335Z AUTO 19009KT 10SM CLR M09/M09 A2985 RMK AO2
K2C8 170315Z AUTO 10SM CLR M09/M09 A2987 RMK AO2
K2C8 170255Z AUTO 19008KT 10SM SCT055 M08/M08 A2988 RMK AO2
K2C8 170235Z AUTO 17008KT 10SM BKN028 BKN055 M08/M08 A2990 RMK AO2
K2C8 170215Z AUTO 19007KT 10SM OVC028 M07/M07 A2991 RMK AO2
K2C8 170155Z AUTO 18006KT 10SM FEW019 OVC028 M07/M07 A2991 RMK AO2
K2C8 170135Z AUTO 18005KT 10SM BKN018 OVC028 M07/M08 A2992 RMK AO2
K2C8 170115Z AUTO 18004KT 10SM FEW019 OVC030 M07/M08 A2992 RMK AO2
K2C8 170055Z AUTO 17003KT 10SM OVC030 M07/M08 A2992 RMK AO2
K2C8 170035Z AUTO 19004KT 10SM OVC032 M07/M08 A2993 RMK AO2
K2C8 170015Z AUTO 14003KT 10SM FEW026 OVC033 M07/M08 A2993 RMK AO2
K2C8 162355Z AUTO 00000KT 10SM FEW021 OVC032 M06/M08 A2994 RMK AO2
K2C8 162335Z AUTO 00000KT 10SM OVC033 M06/M08 A2994 RMK AO2
K2C8 162315Z AUTO 00000KT 10SM OVC032 M06/M07 A2993 RMK AO2